CUF weather

Cuneo International Airport
Cuneo, Piedmont, Italy

Public forecast

Using degrees Celsius for public forecast. Weather courtesy of forecast.io.

Current aviation weather report (METAR) for Cuneo International Airport

Report is more than 6 hours old.

Retrieved 2020/05/24 18:50 UTC (8 hours ago):

LIMZ 241850Z 06004KT CAVOK 20/13 Q1025

Aviation forecast (TAF) for Cuneo International Airport

Forecast is more than 6 hours old.

Retrieved 2020/05/24 18:21 UTC (8 hours ago):

TAF LIMZ 241700Z 2418/2518 VRB05KT CAVOK